This is the latest recevied weather packets stored in our database for station/object 9M2EVR-2. If no packets are shown the sender has not sent any weather packets the latest 10 day(s).
| Time | Temp. | Humidity | Pressure | Rain* | Wind** | Luminosity | Snow |
|---|---|---|---|---|---|---|---|
| 1777883389 | 42.78° C | 40% | 1003.9 hPa | - | - | - | - |
| 1777882488 | 42.78° C | 40% | 1003.9 hPa | - | - | - | - |
| 1777881588 | 42.78° C | 41% | 1004 hPa | - | - | - | - |
| 1777880687 | 42.22° C | 41% | 1004.3 hPa | - | - | - | - |
| 1777879786 | 42.22° C | 41% | 1004.6 hPa | - | - | - | - |
| 1777878885 | 42.22° C | 41% | 1004.9 hPa | - | - | - | - |
| 1777877984 | 41.67° C | 41% | 1005.3 hPa | - | - | - | - |
| 1777877084 | 42.22° C | 41% | 1005.7 hPa | - | - | - | - |
| 1777876183 | 42.22° C | 41% | 1005.9 hPa | - | - | - | - |
| 1777875282 | 41.11° C | 41% | 1006.2 hPa | - | - | - | - |
| 1777874381 | 41.67° C | 42% | 1006.5 hPa | - | - | - | - |
| 1777873480 | 41.67° C | 42% | 1006.9 hPa | - | - | - | - |
| 1777872580 | 42.22° C | 42% | 1007.2 hPa | - | - | - | - |
| 1777871679 | 41.11° C | 42% | 1007.3 hPa | - | - | - | - |
| 1777870778 | 41.11° C | 44% | 1007.7 hPa | - | - | - | - |
| 1777869876 | 41.11° C | 44% | 1007.9 hPa | - | - | - | - |
| 1777868976 | 41.11° C | 44% | 1008.4 hPa | - | - | - | - |
| 1777868075 | 40.56° C | 44% | 1008.7 hPa | - | - | - | - |
| 1777867174 | 40° C | 44% | 1008.7 hPa | - | - | - | - |
| 1777866273 | 40° C | 47% | 1008.6 hPa | - | - | - | - |
| 1777864472 | 38.89° C | 48% | 1008.6 hPa | - | - | - | - |
| 1777846682 | 36.67° C | 48% | 1006.4 hPa | - | - | - | - |
| 1777843979 | 37.22° C | 47% | 1006.2 hPa | - | - | - | - |
| 1777843078 | 36.67° C | 47% | 1006 hPa | - | - | - | - |
| 1777842178 | 36.67° C | 47% | 1006 hPa | - | - | - | - |
* Rain since midnight (hover to see other rain measurements)
** Current wind speed in m/s (hover to see current wind gust speed)